createdAt,value
2023-04-18T00:00:24.016Z,61.21
2023-04-18T00:02:53.952Z,61.88
2023-04-18T00:05:23.640Z,61.29
2023-04-18T00:07:52.866Z,61.30
2023-04-18T00:10:20.748Z,61.63
2023-04-18T00:12:49.048Z,62.17
2023-04-18T00:15:17.128Z,61.52
2023-04-18T00:17:45.092Z,61.68
2023-04-18T00:20:13.653Z,61.79
2023-04-18T00:22:43.952Z,62.04
2023-04-18T00:25:12.055Z,62.28
2023-04-18T00:27:40.473Z,62.62
2023-04-18T00:30:10.061Z,61.98
2023-04-18T00:32:38.058Z,62.28
2023-04-18T00:35:06.824Z,62.21
2023-04-18T00:37:34.784Z,62.25
2023-04-18T00:40:05.631Z,62.81
2023-04-18T00:42:33.988Z,62.27
2023-04-18T00:45:02.215Z,62.40
2023-04-18T00:47:30.183Z,62.66
2023-04-18T00:49:58.097Z,62.75
2023-04-18T00:52:27.713Z,62.57
2023-04-18T00:54:55.841Z,62.43
2023-04-18T00:57:25.886Z,62.73
2023-04-18T00:59:53.807Z,62.44
2023-04-18T01:02:22.353Z,62.89
2023-04-18T01:04:50.531Z,63.70
2023-04-18T01:07:18.471Z,62.82
2023-04-18T01:09:46.507Z,62.37
2023-04-18T01:12:14.432Z,62.78
2023-04-18T01:14:44.089Z,62.73
2023-04-18T01:17:13.505Z,62.75
2023-04-18T01:19:41.749Z,62.37
2023-04-18T01:22:09.918Z,62.85
2023-04-18T01:24:39.443Z,62.96
2023-04-18T01:27:07.674Z,63.40
2023-04-18T01:29:36.750Z,63.24
2023-04-18T01:32:06.948Z,63.31
2023-04-18T01:34:34.843Z,63.60
2023-04-18T01:37:02.823Z,63.54
2023-04-18T01:39:30.728Z,63.07
2023-04-18T01:42:01.401Z,64.15
2023-04-18T01:44:29.304Z,63.56
2023-04-18T01:46:57.291Z,62.89
2023-04-18T01:49:25.213Z,63.59
2023-04-18T01:51:53.129Z,63.87
2023-04-18T01:54:21.211Z,63.84
2023-04-18T01:56:49.134Z,63.83
2023-04-18T01:59:19.632Z,63.75
2023-04-18T02:01:47.727Z,63.83
2023-04-18T02:04:16.070Z,63.22
2023-04-18T02:06:44.268Z,63.68
2023-04-18T02:09:12.390Z,63.09
2023-04-18T02:11:40.276Z,63.00
2023-04-18T02:14:08.341Z,63.26
2023-04-18T02:16:38.894Z,63.84
2023-04-18T02:19:06.866Z,63.76
2023-04-18T02:21:34.733Z,64.00
2023-04-18T02:24:02.700Z,64.21
2023-04-18T02:26:30.653Z,64.12
2023-04-18T02:28:58.735Z,63.29
2023-04-18T02:31:26.926Z,64.05
2023-04-18T02:33:56.304Z,64.15
2023-04-18T02:36:26.161Z,63.84
2023-04-18T02:38:54.146Z,63.54
2023-04-18T02:41:22.235Z,63.74
2023-04-18T02:43:50.509Z,63.75
2023-04-18T02:46:18.605Z,64.43
2023-04-18T02:48:46.572Z,63.90
2023-04-18T02:51:15.885Z,64.10
2023-04-18T02:53:43.802Z,64.21
2023-04-18T02:56:11.854Z,64.30
2023-04-18T02:58:39.840Z,64.94
2023-04-18T03:01:07.748Z,65.04
2023-04-18T03:03:35.744Z,65.11
2023-04-18T03:06:03.679Z,65.43
2023-04-18T03:08:32.950Z,64.82
2023-04-18T03:11:00.950Z,64.69
2023-04-18T03:13:28.861Z,64.36
2023-04-18T03:15:57.205Z,64.82
2023-04-18T03:18:25.160Z,65.34
2023-04-18T03:20:53.113Z,65.26
2023-04-18T03:23:21.039Z,65.48
2023-04-18T03:25:50.415Z,65.17
2023-04-18T03:28:18.314Z,65.08
2023-04-18T03:30:46.247Z,65.33
2023-04-18T03:33:14.849Z,65.19
2023-04-18T03:35:42.746Z,65.42
2023-04-18T03:38:10.658Z,64.76
2023-04-18T03:40:38.541Z,65.12
2023-04-18T03:43:07.859Z,64.94
2023-04-18T03:45:35.781Z,65.17
2023-04-18T03:48:03.986Z,64.25
2023-04-18T03:50:31.930Z,64.45
2023-04-18T03:52:59.914Z,65.16
2023-04-18T03:55:27.853Z,65.73
2023-04-18T03:57:55.802Z,65.15
2023-04-18T04:00:25.104Z,64.80
2023-04-18T04:02:53.179Z,64.80
2023-04-18T04:05:21.214Z,65.32
2023-04-18T04:07:49.109Z,65.18
2023-04-18T04:10:17.170Z,65.05
2023-04-18T04:12:45.058Z,65.70
2023-04-18T04:15:13.266Z,65.36
2023-04-18T04:17:42.610Z,65.03
2023-04-18T04:20:11.667Z,66.19
2023-04-18T04:22:39.603Z,65.86
2023-04-18T04:25:08.267Z,65.97
2023-04-18T04:27:36.875Z,66.04
2023-04-18T04:30:05.354Z,65.87
2023-04-18T04:32:33.481Z,65.84
2023-04-18T04:35:02.831Z,65.23
2023-04-18T04:37:30.748Z,65.39
2023-04-18T04:40:00.889Z,65.74
2023-04-18T04:42:29.464Z,65.19
2023-04-18T04:44:57.414Z,65.93
2023-04-18T04:47:26.146Z,65.73
2023-04-18T04:49:54.129Z,65.30
2023-04-18T04:52:23.400Z,65.56
2023-04-18T04:54:52.663Z,66.04
2023-04-18T04:57:20.923Z,65.60
2023-04-18T04:59:48.800Z,65.37
2023-04-18T05:02:16.784Z,65.79
2023-04-18T05:04:44.777Z,65.22
2023-04-18T05:07:12.693Z,65.43
2023-04-18T05:09:42.031Z,65.50
2023-04-18T05:12:10.067Z,65.21
2023-04-18T05:14:38.006Z,65.47
2023-04-18T05:17:06.005Z,65.96
2023-04-18T05:19:34.039Z,65.82
2023-04-18T05:22:01.987Z,66.15
2023-04-18T05:24:31.644Z,65.37
2023-04-18T05:27:01.685Z,65.73
2023-04-18T05:29:29.636Z,66.04
2023-04-18T05:31:57.503Z,65.37
2023-04-18T05:34:25.493Z,65.27
2023-04-18T05:36:53.492Z,64.75
2023-04-18T05:39:21.411Z,65.32
2023-04-18T05:41:49.419Z,65.06
2023-04-18T05:44:18.930Z,65.49
2023-04-18T05:46:46.971Z,65.88
2023-04-18T05:49:14.959Z,65.13
2023-04-18T05:51:42.858Z,64.72
2023-04-18T05:54:10.842Z,65.75
2023-04-18T05:56:38.795Z,64.79
2023-04-18T05:59:06.703Z,65.88
2023-04-18T06:01:36.060Z,64.88
2023-04-18T06:04:04.147Z,64.21
2023-04-18T06:06:32.597Z,64.64
2023-04-18T06:09:00.517Z,65.22
2023-04-18T06:11:28.435Z,65.37
2023-04-18T06:13:56.729Z,66.14
2023-04-18T06:16:24.701Z,64.57
2023-04-18T06:18:55.003Z,64.81
2023-04-18T06:21:23.002Z,64.70
2023-04-18T06:23:50.924Z,64.04
2023-04-18T06:26:18.830Z,64.44
2023-04-18T06:28:46.769Z,65.52
2023-04-18T06:31:14.728Z,63.93
2023-04-18T06:33:42.642Z,64.32
2023-04-18T06:36:12.043Z,63.98
2023-04-18T06:38:40.002Z,63.25
2023-04-18T06:41:07.897Z,63.46
2023-04-18T06:43:36.600Z,63.72
2023-04-18T06:46:05.765Z,63.48
2023-04-18T06:48:33.772Z,63.51
2023-04-18T06:51:01.698Z,62.97
2023-04-18T06:53:31.052Z,63.33
2023-04-18T06:55:58.974Z,62.86
2023-04-18T06:58:26.864Z,62.80
2023-04-18T07:00:54.784Z,62.96
2023-04-18T07:03:23.009Z,61.87
2023-04-18T07:05:51.563Z,61.64
2023-04-18T07:08:19.466Z,62.87
2023-04-18T07:10:48.743Z,62.82
2023-04-18T07:13:16.680Z,62.36
2023-04-18T07:15:45.085Z,62.81
2023-04-18T07:18:16.113Z,62.72
2023-04-18T07:20:48.530Z,62.63
2023-04-18T07:23:16.436Z,62.07
2023-04-18T07:25:45.494Z,61.87
2023-04-18T07:28:14.819Z,61.95
2023-04-18T07:30:42.754Z,62.21
2023-04-18T07:33:10.668Z,62.18
2023-04-18T07:35:40.462Z,61.65
2023-04-18T07:38:08.428Z,60.16
2023-04-18T07:40:39.330Z,60.52
2023-04-18T07:43:07.254Z,60.79
2023-04-18T07:45:38.411Z,61.60
2023-04-18T07:48:07.167Z,61.10
2023-04-18T07:50:35.104Z,60.87
2023-04-18T07:53:03.451Z,60.58
2023-04-18T07:55:31.362Z,60.50
2023-04-18T07:57:59.320Z,60.18
2023-04-18T08:00:28.812Z,59.77
2023-04-18T08:02:58.218Z,60.10
2023-04-18T08:05:27.143Z,59.48
2023-04-18T08:07:55.048Z,59.34
2023-04-18T08:10:23.916Z,60.05
2023-04-18T08:12:51.996Z,59.92
2023-04-18T08:15:19.984Z,60.04
2023-04-18T08:17:49.192Z,60.02
2023-04-18T08:20:18.676Z,59.91
2023-04-18T08:23:02.286Z,59.99
2023-04-18T08:26:06.654Z,59.77
2023-04-18T08:28:34.686Z,59.24
2023-04-18T08:31:02.869Z,56.50
2023-04-18T08:33:30.872Z,58.57
2023-04-18T08:36:00.168Z,59.11
2023-04-18T08:38:28.068Z,58.68
2023-04-18T08:40:56.161Z,58.53
2023-04-18T08:43:25.330Z,58.43
2023-04-18T08:45:59.569Z,56.33
2023-04-18T08:48:28.329Z,58.68
2023-04-18T08:50:58.330Z,58.45
2023-04-18T08:53:28.071Z,57.47
2023-04-18T08:55:58.060Z,57.38
2023-04-18T08:58:27.658Z,56.41
2023-04-18T09:00:56.415Z,55.34
2023-04-18T09:03:42.365Z,55.58
2023-04-18T09:06:13.687Z,56.29
2023-04-18T09:08:44.675Z,55.88
2023-04-18T09:11:23.306Z,56.16
2023-04-18T09:13:51.882Z,55.57
2023-04-18T09:16:20.724Z,56.21
2023-04-18T09:19:11.110Z,55.56
2023-04-18T09:21:40.734Z,56.04
2023-04-18T09:24:24.123Z,56.91
2023-04-18T09:26:53.955Z,57.16
2023-04-18T09:29:23.521Z,57.14
2023-04-18T09:31:59.880Z,57.10
2023-04-18T09:34:28.701Z,57.20
2023-04-18T09:37:11.870Z,57.56
2023-04-18T09:39:43.769Z,56.53
2023-04-18T09:42:12.486Z,56.43
2023-04-18T09:44:59.588Z,56.74
2023-04-18T09:47:28.277Z,56.29
2023-04-18T09:49:56.872Z,56.42
2023-04-18T09:52:26.038Z,57.36
2023-04-18T09:54:59.469Z,57.00
2023-04-18T09:57:28.809Z,56.71
2023-04-18T10:00:02.295Z,57.51
2023-04-18T10:02:35.902Z,57.65
2023-04-18T10:05:07.985Z,56.55
2023-04-18T10:07:36.201Z,57.40
2023-04-18T10:10:06.424Z,56.96
2023-04-18T10:12:34.807Z,57.07
2023-04-18T10:15:03.110Z,57.65
2023-04-18T10:17:31.937Z,57.68
2023-04-18T10:20:10.195Z,57.86
2023-04-18T10:22:38.123Z,58.42
2023-04-18T10:25:08.596Z,57.72
2023-04-18T10:27:55.967Z,57.84
2023-04-18T10:30:51.064Z,58.02
2023-04-18T10:33:30.811Z,58.04
2023-04-18T10:36:14.945Z,58.43
2023-04-18T10:38:49.656Z,57.18
2023-04-18T10:41:22.279Z,58.01
2023-04-18T10:44:22.737Z,58.39
2023-04-18T10:47:19.930Z,58.04
2023-04-18T10:49:58.958Z,57.87
2023-04-18T10:52:28.173Z,58.33
2023-04-18T10:55:02.916Z,58.45
2023-04-18T10:57:40.872Z,57.78
2023-04-18T11:00:11.788Z,58.10
2023-04-18T11:02:40.915Z,58.21
2023-04-18T11:05:10.860Z,58.02
2023-04-18T11:07:40.134Z,58.11
2023-04-18T11:10:10.295Z,57.05
2023-04-18T11:12:40.704Z,57.55
2023-04-18T11:15:12.148Z,56.77
2023-04-18T11:17:41.267Z,57.23
2023-04-18T11:20:11.230Z,57.26
2023-04-18T11:22:47.699Z,57.67
2023-04-18T11:25:16.446Z,57.34
2023-04-18T11:27:47.108Z,57.23
2023-04-18T11:30:15.971Z,56.97
2023-04-18T11:32:44.213Z,56.07
2023-04-18T11:35:13.287Z,56.61
2023-04-18T11:37:42.991Z,56.62
2023-04-18T11:40:11.322Z,57.03
2023-04-18T11:42:40.912Z,57.00
2023-04-18T11:45:14.377Z,56.40
2023-04-18T11:47:44.277Z,56.64
2023-04-18T11:50:13.610Z,55.12
2023-04-18T11:52:42.871Z,55.79
2023-04-18T11:55:19.117Z,55.39
2023-04-18T11:57:54.815Z,56.27
2023-04-18T12:00:34.514Z,56.02
2023-04-18T12:03:04.596Z,55.51
2023-04-18T12:05:34.795Z,55.64
2023-04-18T12:08:11.476Z,55.96
2023-04-18T12:10:40.226Z,56.32
2023-04-18T12:13:09.406Z,56.10
2023-04-18T12:15:41.623Z,56.49
2023-04-18T12:18:09.626Z,55.76
2023-04-18T12:20:39.256Z,55.31
2023-04-18T12:23:08.033Z,56.31
2023-04-18T12:25:36.438Z,55.48
2023-04-18T12:28:05.750Z,54.71
2023-04-18T12:30:37.554Z,56.07
2023-04-18T12:33:09.196Z,55.58
2023-04-18T12:35:37.117Z,56.03
2023-04-18T12:38:06.316Z,55.78
2023-04-18T12:40:34.210Z,56.00
2023-04-18T12:43:03.687Z,56.18
2023-04-18T12:45:32.220Z,56.27
2023-04-18T12:48:00.280Z,55.92
2023-04-18T12:50:29.628Z,55.58
2023-04-18T12:53:00.586Z,56.00
2023-04-18T12:55:28.844Z,55.32
2023-04-18T12:57:58.125Z,54.73
2023-04-18T13:00:28.132Z,54.86
2023-04-18T13:02:56.412Z,54.76
2023-04-18T13:05:26.159Z,54.57
2023-04-18T13:08:08.644Z,54.60
2023-04-18T13:10:43.628Z,54.50
2023-04-18T13:13:11.724Z,54.02
2023-04-18T13:15:39.840Z,53.56
2023-04-18T13:18:08.048Z,52.72
2023-04-18T13:20:36.646Z,52.52
2023-04-18T13:23:06.110Z,52.37
2023-04-18T13:25:34.053Z,51.98
2023-04-18T13:28:02.034Z,51.88
2023-04-18T13:30:29.991Z,51.85
2023-04-18T13:32:58.009Z,52.26
2023-04-18T13:35:26.064Z,52.88
2023-04-18T13:37:53.966Z,53.12
2023-04-18T13:40:24.235Z,53.20
2023-04-18T13:42:52.623Z,51.97
2023-04-18T13:45:20.593Z,51.33
2023-04-18T13:47:48.603Z,51.73
2023-04-18T13:50:16.863Z,51.22
2023-04-18T13:52:44.838Z,51.15
2023-04-18T13:55:12.719Z,51.27
2023-04-18T13:57:42.050Z,51.76
2023-04-18T14:00:13.889Z,51.32
2023-04-18T14:02:42.206Z,51.27
2023-04-18T14:05:10.956Z,51.29
2023-04-18T14:07:39.373Z,51.19
2023-04-18T14:10:08.284Z,52.12
2023-04-18T14:12:36.308Z,51.43
2023-04-18T14:15:06.637Z,51.73
2023-04-18T14:17:34.966Z,50.25
2023-04-18T14:20:03.265Z,50.89
2023-04-18T14:22:31.260Z,50.75
2023-04-18T14:24:59.195Z,51.26
2023-04-18T14:27:27.770Z,51.05
2023-04-18T14:29:55.745Z,49.82
2023-04-18T14:32:25.147Z,50.00
2023-04-18T14:34:53.495Z,51.08
2023-04-18T14:37:22.369Z,52.67
2023-04-18T14:39:50.617Z,51.27
2023-04-18T14:42:18.827Z,51.67
2023-04-18T14:44:46.789Z,50.33
2023-04-18T14:47:14.678Z,50.66
2023-04-18T14:49:43.985Z,50.20
2023-04-18T14:52:11.950Z,48.99
2023-04-18T14:54:39.840Z,47.50
2023-04-18T14:57:08.586Z,48.87
2023-04-18T14:59:36.506Z,49.87
2023-04-18T15:02:04.489Z,49.13
2023-04-18T15:04:32.702Z,47.73
2023-04-18T15:07:02.384Z,48.77
2023-04-18T15:09:30.901Z,48.36
2023-04-18T15:12:00.250Z,47.90
2023-04-18T15:14:28.169Z,48.42
2023-04-18T15:16:56.678Z,48.26
2023-04-18T15:19:24.647Z,49.56
2023-04-18T15:21:52.942Z,50.65
2023-04-18T15:24:22.271Z,50.27
2023-04-18T15:26:50.738Z,49.84
2023-04-18T15:29:18.619Z,50.54
2023-04-18T15:31:46.787Z,50.50
2023-04-18T15:34:15.000Z,48.87
2023-04-18T15:36:43.112Z,47.92
2023-04-18T15:39:11.524Z,47.94
2023-04-18T15:41:42.114Z,47.55
2023-04-18T15:44:10.285Z,47.00
2023-04-18T15:46:38.427Z,46.56
2023-04-18T15:49:06.603Z,46.68
2023-04-18T15:51:34.535Z,46.40
2023-04-18T15:54:02.430Z,46.87
2023-04-18T15:56:33.010Z,47.08
2023-04-18T15:59:03.288Z,48.70
2023-04-18T16:01:31.199Z,48.70
2023-04-18T16:03:59.215Z,47.89
2023-04-18T16:06:27.390Z,47.80
2023-04-18T16:08:55.280Z,45.89
2023-04-18T16:11:26.162Z,47.12
2023-04-18T16:13:55.667Z,46.33
2023-04-18T16:16:25.085Z,46.18
2023-04-18T16:18:53.049Z,45.38
2023-04-18T16:21:20.989Z,46.04
2023-04-18T16:23:49.522Z,45.64
2023-04-18T16:26:17.492Z,45.79
2023-04-18T16:28:45.525Z,45.91
2023-04-18T16:31:15.665Z,48.26
2023-04-18T16:33:45.517Z,49.65
2023-04-18T16:36:13.574Z,48.70
2023-04-18T16:38:41.499Z,47.86
2023-04-18T16:41:09.371Z,47.18
2023-04-18T16:43:38.050Z,46.28
2023-04-18T16:46:06.546Z,45.92
2023-04-18T16:48:34.543Z,46.14
2023-04-18T16:51:03.835Z,49.99
2023-04-18T16:53:31.771Z,50.56
2023-04-18T16:56:00.878Z,50.80
2023-04-18T16:58:28.771Z,48.45
2023-04-18T17:00:56.733Z,47.30
2023-04-18T17:03:24.710Z,46.98
2023-04-18T17:05:52.903Z,47.07
2023-04-18T17:08:22.204Z,47.75
2023-04-18T17:10:52.634Z,48.36
2023-04-18T17:13:20.632Z,48.30
2023-04-18T17:15:48.554Z,48.05
2023-04-18T17:18:16.538Z,47.95
2023-04-18T17:20:44.411Z,47.60
2023-04-18T17:23:12.341Z,48.56
2023-04-18T17:25:41.684Z,47.79
2023-04-18T17:28:10.140Z,48.62
2023-04-18T17:30:41.417Z,48.80
2023-04-18T17:33:09.486Z,50.16
2023-04-18T17:35:37.479Z,50.73
2023-04-18T17:38:07.289Z,51.17
2023-04-18T17:40:35.351Z,50.38
2023-04-18T17:43:04.717Z,52.06
2023-04-18T17:45:32.750Z,52.41
2023-04-18T17:48:02.276Z,53.89
2023-04-18T17:50:30.344Z,54.35
2023-04-18T17:52:58.575Z,55.14
2023-04-18T17:55:27.169Z,55.34
2023-04-18T17:57:55.126Z,55.20
2023-04-18T18:00:24.908Z,54.71
2023-04-18T18:02:53.237Z,55.13
2023-04-18T18:05:21.448Z,55.14
2023-04-18T18:07:49.530Z,56.28
2023-04-18T18:10:20.087Z,56.62
2023-04-18T18:12:48.217Z,56.66
2023-04-18T18:15:16.734Z,56.18
2023-04-18T18:17:46.161Z,56.81
2023-04-18T18:20:14.623Z,55.96
2023-04-18T18:22:42.569Z,57.15
2023-04-18T18:25:11.331Z,56.82
2023-04-18T18:27:39.308Z,57.09
2023-04-18T18:30:08.539Z,57.18
2023-04-18T18:32:36.570Z,57.77
2023-04-18T18:35:07.355Z,57.78
2023-04-18T18:37:35.298Z,58.51
2023-04-18T18:40:04.640Z,58.45
2023-04-18T18:42:32.567Z,57.80
2023-04-18T18:45:01.650Z,58.98
2023-04-18T18:47:30.569Z,58.66
2023-04-18T18:49:58.630Z,58.79
2023-04-18T18:52:29.794Z,58.81
2023-04-18T18:54:57.890Z,58.99
2023-04-18T18:57:26.171Z,59.25
2023-04-18T18:59:55.813Z,59.41
2023-04-18T19:02:24.373Z,59.20
2023-04-18T19:04:52.599Z,59.79
2023-04-18T19:07:20.686Z,59.67
2023-04-18T19:09:49.971Z,59.80
2023-04-18T19:12:17.931Z,59.01
2023-04-18T19:14:46.870Z,60.03
2023-04-18T19:17:17.661Z,59.23
2023-04-18T19:19:45.560Z,59.33
2023-04-18T19:22:13.523Z,59.65
2023-04-18T19:24:41.446Z,59.59
2023-04-18T19:27:10.767Z,59.89
2023-04-18T19:29:38.692Z,60.32
2023-04-18T19:32:07.576Z,60.25
2023-04-18T19:34:35.494Z,60.54
2023-04-18T19:37:03.734Z,60.29
2023-04-18T19:39:32.075Z,60.76
2023-04-18T19:42:00.662Z,61.00
2023-04-18T19:44:31.216Z,61.37
2023-04-18T19:46:59.122Z,61.21
2023-04-18T19:49:27.149Z,61.07
2023-04-18T19:51:55.248Z,61.54
2023-04-18T19:54:23.149Z,61.62
2023-04-18T19:56:51.272Z,61.55
2023-04-18T19:59:19.187Z,61.65
2023-04-18T20:01:48.497Z,61.58
2023-04-18T20:04:16.646Z,61.78
2023-04-18T20:06:44.604Z,61.81
2023-04-18T20:09:16.844Z,62.24
2023-04-18T20:11:46.513Z,61.98
2023-04-18T20:14:14.434Z,62.23
2023-04-18T20:16:42.901Z,62.73
2023-04-18T20:19:12.860Z,62.21
2023-04-18T20:21:41.133Z,62.49
2023-04-18T20:24:10.184Z,62.31
2023-04-18T20:26:38.126Z,62.63
2023-04-18T20:29:06.028Z,62.77
2023-04-18T20:31:33.968Z,62.78
2023-04-18T20:34:01.885Z,62.83
2023-04-18T20:36:32.056Z,62.88
2023-04-18T20:39:02.368Z,62.91
2023-04-18T20:41:32.069Z,62.98
2023-04-18T20:43:59.988Z,63.61
2023-04-18T20:46:27.931Z,63.26
2023-04-18T20:48:55.831Z,63.15
2023-04-18T20:51:23.776Z,63.21
2023-04-18T20:53:53.072Z,63.34
2023-04-18T20:56:20.984Z,63.47
2023-04-18T20:58:48.903Z,63.67
2023-04-18T21:01:16.934Z,63.73
2023-04-18T21:03:45.119Z,63.61
2023-04-18T21:06:13.231Z,63.81
2023-04-18T21:08:41.207Z,64.03
2023-04-18T21:11:10.592Z,63.87
2023-04-18T21:13:38.493Z,64.20
2023-04-18T21:16:07.970Z,64.18
2023-04-18T21:18:35.956Z,64.59
2023-04-18T21:21:03.895Z,64.33
2023-04-18T21:23:31.780Z,64.12
2023-04-18T21:25:59.676Z,64.24
2023-04-18T21:28:28.955Z,64.33
2023-04-18T21:30:56.908Z,64.06
2023-04-18T21:33:26.191Z,64.29
2023-04-18T21:35:54.128Z,64.28
2023-04-18T21:38:25.472Z,64.33
2023-04-18T21:40:53.382Z,64.43
2023-04-18T21:43:21.313Z,64.31
2023-04-18T21:45:50.710Z,64.49
2023-04-18T21:48:18.604Z,64.69
2023-04-18T21:50:46.510Z,64.52
2023-04-18T21:53:14.402Z,64.53
2023-04-18T21:55:42.404Z,64.28
2023-04-18T21:58:10.332Z,65.03
2023-04-18T22:00:38.194Z,64.81
2023-04-18T22:03:08.870Z,65.30
2023-04-18T22:05:37.217Z,64.82
2023-04-18T22:08:05.604Z,64.97
2023-04-18T22:10:35.166Z,65.09
2023-04-18T22:13:04.537Z,64.71
2023-04-18T22:15:33.360Z,65.07
2023-04-18T22:18:01.812Z,65.48
2023-04-18T22:20:31.641Z,65.01
2023-04-18T22:22:59.528Z,65.16
2023-04-18T22:25:27.423Z,64.96
2023-04-18T22:27:55.311Z,64.58
2023-04-18T22:30:23.408Z,65.05
2023-04-18T22:32:51.387Z,65.09
2023-04-18T22:35:19.643Z,65.22
2023-04-18T22:37:48.955Z,65.43
2023-04-18T22:40:17.097Z,65.61
2023-04-18T22:42:45.063Z,65.48
2023-04-18T22:45:13.585Z,65.31
2023-04-18T22:47:41.790Z,65.32
2023-04-18T22:50:10.614Z,64.83
2023-04-18T22:52:38.576Z,65.21
2023-04-18T22:55:08.593Z,65.43
2023-04-18T22:57:36.552Z,65.12
2023-04-18T23:00:06.489Z,65.63
2023-04-18T23:02:34.579Z,65.33
2023-04-18T23:05:02.919Z,65.50
2023-04-18T23:07:30.844Z,65.26
2023-04-18T23:09:58.793Z,65.50
2023-04-18T23:12:28.091Z,65.46
2023-04-18T23:14:55.989Z,65.76
2023-04-18T23:17:23.900Z,65.45
2023-04-18T23:19:51.849Z,65.42
2023-04-18T23:22:20.425Z,65.36
2023-04-18T23:24:48.333Z,65.61
2023-04-18T23:27:16.394Z,65.84
2023-04-18T23:29:48.262Z,65.31
2023-04-18T23:32:16.224Z,65.70
2023-04-18T23:34:44.149Z,65.65
2023-04-18T23:37:12.118Z,65.54
2023-04-18T23:39:40.036Z,65.97
2023-04-18T23:42:07.982Z,66.18
2023-04-18T23:44:35.919Z,65.61
2023-04-18T23:47:05.304Z,66.30
2023-04-18T23:49:33.238Z,66.29
2023-04-18T23:52:01.122Z,65.95
2023-04-18T23:54:29.061Z,66.11
2023-04-18T23:56:57.174Z,66.50
2023-04-18T23:59:25.122Z,66.35
